createdAt,value
2018-11-05T00:00:55.014Z,47.77
2018-11-05T00:02:57.287Z,46.23
2018-11-05T00:04:59.779Z,46.03
2018-11-05T00:07:02.238Z,44.40
2018-11-05T00:09:06.640Z,46.63
2018-11-05T00:11:08.901Z,44.43
2018-11-05T00:13:11.200Z,47.20
2018-11-05T00:15:13.454Z,43.33
2018-11-05T00:17:15.755Z,47.87
2018-11-05T00:19:18.347Z,42.33
2018-11-05T00:21:20.628Z,44.30
2018-11-05T00:23:22.877Z,42.83
2018-11-05T00:25:25.652Z,43.17
2018-11-05T00:27:27.891Z,45.07
2018-11-05T00:29:30.425Z,45.27
2018-11-05T00:31:32.679Z,44.17
2018-11-05T00:33:34.934Z,44.00
2018-11-05T00:35:37.195Z,42.70
2018-11-05T00:37:39.511Z,43.13
2018-11-05T00:39:41.761Z,42.17
2018-11-05T00:41:44.029Z,42.83
2018-11-05T00:43:46.316Z,42.83
2018-11-05T00:45:48.630Z,43.80
2018-11-05T00:47:50.859Z,43.60
2018-11-05T00:49:53.280Z,44.83
2018-11-05T00:51:55.521Z,44.80
2018-11-05T00:53:57.724Z,43.00
2018-11-05T00:56:00.531Z,45.13
2018-11-05T00:58:02.725Z,45.77
2018-11-05T01:00:06.791Z,51.47
2018-11-05T01:02:09.222Z,47.87
2018-11-05T01:04:11.403Z,44.43
2018-11-05T01:06:13.578Z,43.77
2018-11-05T01:08:15.826Z,43.03
2018-11-05T01:10:18.041Z,42.87
2018-11-05T01:12:20.262Z,44.77
2018-11-05T01:14:22.474Z,41.57
2018-11-05T01:16:25.513Z,44.60
2018-11-05T01:18:27.722Z,41.60
2018-11-05T01:20:29.962Z,43.50
2018-11-05T01:22:32.305Z,44.43
2018-11-05T01:24:34.753Z,43.87
2018-11-05T01:26:37.644Z,42.37
2018-11-05T01:28:39.974Z,44.33
2018-11-05T01:30:42.233Z,42.27
2018-11-05T01:32:44.565Z,45.63
2018-11-05T01:34:46.804Z,41.10
2018-11-05T01:36:49.070Z,43.10
2018-11-05T01:38:51.935Z,43.37
2018-11-05T01:40:54.260Z,40.07
2018-11-05T01:42:56.509Z,42.57
2018-11-05T01:44:58.766Z,46.17
2018-11-05T01:47:01.026Z,43.60
2018-11-05T01:49:03.366Z,41.87
2018-11-05T01:51:05.915Z,45.10
2018-11-05T01:53:08.178Z,45.27
2018-11-05T01:55:10.565Z,44.50
2018-11-05T01:57:12.794Z,43.57
2018-11-05T01:59:14.958Z,43.10
2018-11-05T02:01:17.287Z,43.30
2018-11-05T02:03:19.843Z,42.03
2018-11-05T02:05:22.030Z,39.43
2018-11-05T02:07:24.788Z,40.37
2018-11-05T02:09:26.978Z,43.90
2018-11-05T02:11:29.194Z,43.40
2018-11-05T02:13:31.627Z,45.20
2018-11-05T02:15:33.763Z,41.33
2018-11-05T02:17:36.021Z,51.60
2018-11-05T02:19:39.671Z,41.43
2018-11-05T02:21:41.908Z,43.70
2018-11-05T02:23:44.325Z,44.30
2018-11-05T02:25:46.663Z,44.33
2018-11-05T02:27:48.872Z,45.10
2018-11-05T02:29:51.122Z,42.43
2018-11-05T02:31:53.310Z,43.40
2018-11-05T02:33:55.586Z,43.30
2018-11-05T02:35:57.797Z,43.60
2018-11-05T02:38:00.235Z,44.10
2018-11-05T02:40:02.874Z,43.73
2018-11-05T02:42:05.436Z,43.10
2018-11-05T02:44:07.663Z,43.80
2018-11-05T02:46:09.928Z,43.20
2018-11-05T02:48:12.202Z,41.77
2018-11-05T02:50:14.934Z,44.40
2018-11-05T02:52:17.165Z,43.37
2018-11-05T02:54:19.382Z,41.50
2018-11-05T02:56:21.597Z,44.07
2018-11-05T02:58:26.286Z,44.60
2018-11-05T03:00:28.497Z,41.17
2018-11-05T03:02:30.888Z,42.57
2018-11-05T03:04:33.190Z,43.47
2018-11-05T03:06:35.469Z,40.07
2018-11-05T03:08:37.724Z,41.43
2018-11-05T03:10:40.438Z,45.17
2018-11-05T03:12:43.408Z,42.33
2018-11-05T03:14:46.237Z,45.53
2018-11-05T03:16:48.911Z,41.80
2018-11-05T03:18:51.159Z,44.47
2018-11-05T03:20:53.372Z,42.70
2018-11-05T03:22:55.647Z,43.03
2018-11-05T03:24:57.899Z,44.00
2018-11-05T03:27:00.359Z,43.97
2018-11-05T03:29:02.624Z,43.00
2018-11-05T03:31:04.851Z,44.57
2018-11-05T03:33:07.312Z,42.20
2018-11-05T03:35:10.680Z,43.83
2018-11-05T03:37:12.937Z,43.73
2018-11-05T03:39:15.135Z,45.50
2018-11-05T03:41:17.329Z,46.17
2018-11-05T03:43:19.502Z,43.80
2018-11-05T03:45:21.693Z,46.37
2018-11-05T03:47:24.247Z,44.87
2018-11-05T03:49:26.465Z,45.57
2018-11-05T03:51:28.667Z,42.80
2018-11-05T03:53:31.137Z,47.17
2018-11-05T03:55:33.400Z,45.87
2018-11-05T03:57:35.497Z,48.00
2018-11-05T03:59:38.382Z,46.43
2018-11-05T04:01:40.574Z,44.97
2018-11-05T04:03:42.771Z,48.23
2018-11-05T04:05:45.008Z,45.40
2018-11-05T04:07:47.229Z,47.00
2018-11-05T04:09:49.476Z,46.90
2018-11-05T04:11:51.733Z,50.47
2018-11-05T04:13:53.983Z,49.33
2018-11-05T04:15:56.277Z,47.13
2018-11-05T04:17:58.855Z,47.50
2018-11-05T04:20:01.094Z,50.00
2018-11-05T04:22:03.289Z,45.50
2018-11-05T04:24:05.782Z,48.97
2018-11-05T04:26:07.970Z,50.93
2018-11-05T04:28:10.203Z,50.53
2018-11-05T04:30:14.799Z,47.83
2018-11-05T04:32:16.999Z,48.30
2018-11-05T04:34:19.216Z,47.67
2018-11-05T04:36:21.881Z,50.73
2018-11-05T04:38:24.062Z,49.40
2018-11-05T04:40:26.411Z,45.80
2018-11-05T04:42:28.678Z,47.57
2018-11-05T04:44:30.940Z,44.83
2018-11-05T04:46:33.207Z,48.07
2018-11-05T04:48:35.827Z,47.77
2018-11-05T04:50:38.055Z,47.57
2018-11-05T04:52:40.968Z,49.80
2018-11-05T04:54:43.247Z,46.37
2018-11-05T04:56:45.437Z,50.63
2018-11-05T04:58:47.751Z,45.63
2018-11-05T05:00:50.063Z,48.20
2018-11-05T05:02:52.475Z,46.13
2018-11-05T05:04:54.743Z,49.50
2018-11-05T05:06:57.014Z,48.50
2018-11-05T05:08:59.307Z,47.30
2018-11-05T05:11:01.526Z,46.93
2018-11-05T05:13:03.944Z,49.00
2018-11-05T05:15:06.338Z,48.93
2018-11-05T05:17:08.718Z,47.20
2018-11-05T05:19:11.056Z,49.67
2018-11-05T05:21:13.380Z,51.07
2018-11-05T05:23:15.627Z,48.23
2018-11-05T05:25:18.005Z,48.50
2018-11-05T05:27:20.318Z,47.60
2018-11-05T05:29:22.579Z,45.30
2018-11-05T05:31:25.067Z,49.57
2018-11-05T05:33:27.315Z,49.07
2018-11-05T05:35:29.564Z,50.33
2018-11-05T05:37:31.811Z,51.20
2018-11-05T05:39:34.068Z,48.07
2018-11-05T05:41:36.268Z,50.10
2018-11-05T05:43:38.759Z,47.30
2018-11-05T05:45:41.016Z,48.37
2018-11-05T05:47:43.395Z,45.37
2018-11-05T05:49:45.683Z,49.63
2018-11-05T05:51:47.901Z,47.47
2018-11-05T05:53:50.122Z,48.87
2018-11-05T05:55:52.441Z,46.93
2018-11-05T05:57:54.700Z,48.30
2018-11-05T05:59:57.523Z,46.10
2018-11-05T06:01:59.701Z,51.40
2018-11-05T06:04:01.951Z,49.60
2018-11-05T06:06:04.612Z,47.47
2018-11-05T06:08:06.787Z,48.73
2018-11-05T06:10:09.978Z,44.23
2018-11-05T06:12:12.621Z,46.50
2018-11-05T06:14:14.818Z,45.10
2018-11-05T06:16:17.129Z,49.27
2018-11-05T06:18:19.434Z,45.10
2018-11-05T06:20:21.761Z,47.07
2018-11-05T06:22:23.961Z,46.40
2018-11-05T06:24:26.182Z,46.70
2018-11-05T06:26:28.437Z,48.40
2018-11-05T06:28:30.809Z,43.47
2018-11-05T06:30:33.072Z,46.90
2018-11-05T06:32:35.354Z,47.40
2018-11-05T06:34:37.695Z,45.43
2018-11-05T06:36:39.935Z,47.10
2018-11-05T06:38:42.310Z,44.30
2018-11-05T06:40:44.585Z,46.17
2018-11-05T06:42:47.021Z,46.87
2018-11-05T06:44:49.481Z,50.03
2018-11-05T06:46:51.662Z,45.37
2018-11-05T06:48:53.908Z,45.80
2018-11-05T06:50:56.317Z,47.20
2018-11-05T06:52:58.686Z,46.93
2018-11-05T06:55:00.825Z,45.10
2018-11-05T06:57:03.226Z,47.40
2018-11-05T06:59:05.647Z,45.13
2018-11-05T07:01:07.895Z,46.50
2018-11-05T07:03:10.129Z,49.57
2018-11-05T07:05:12.937Z,51.90
2018-11-05T07:07:15.172Z,47.47
2018-11-05T07:09:17.673Z,46.83
2018-11-05T07:11:19.976Z,45.47
2018-11-05T07:13:22.144Z,45.47
2018-11-05T07:15:24.533Z,45.10
2018-11-05T07:17:26.806Z,45.13
2018-11-05T07:19:29.087Z,46.70
2018-11-05T07:21:31.599Z,43.90
2018-11-05T07:23:34.156Z,43.77
2018-11-05T07:25:36.518Z,48.93
2018-11-05T07:27:40.196Z,43.27
2018-11-05T07:29:42.410Z,46.57
2018-11-05T07:31:44.683Z,44.70
2018-11-05T07:33:47.060Z,45.93
2018-11-05T07:35:49.222Z,44.23
2018-11-05T07:37:52.067Z,42.67
2018-11-05T07:39:54.502Z,43.90
2018-11-05T07:41:56.794Z,45.83
2018-11-05T07:43:59.084Z,44.17
2018-11-05T07:46:01.407Z,44.57
2018-11-05T07:48:03.631Z,45.07
2018-11-05T07:50:07.048Z,46.27
2018-11-05T07:52:09.440Z,41.20
2018-11-05T07:54:11.652Z,40.90
2018-11-05T07:56:13.946Z,42.97
2018-11-05T07:58:16.471Z,43.23
2018-11-05T08:00:24.455Z,42.60
2018-11-05T08:02:26.807Z,43.50
2018-11-05T08:04:29.162Z,42.80
2018-11-05T08:06:31.412Z,42.90
2018-11-05T08:08:33.681Z,38.87
2018-11-05T08:10:36.214Z,39.13
2018-11-05T08:12:38.970Z,40.33
2018-11-05T08:14:41.192Z,38.77
2018-11-05T08:16:43.631Z,39.70
2018-11-05T08:18:45.855Z,39.97
2018-11-05T08:20:48.120Z,40.87
2018-11-05T08:22:50.390Z,37.93
2018-11-05T08:24:52.639Z,39.20
2018-11-05T08:26:55.050Z,40.73
2018-11-05T08:28:58.147Z,40.37
2018-11-05T08:31:00.511Z,39.37
2018-11-05T08:33:02.742Z,41.77
2018-11-05T08:35:05.368Z,40.07
2018-11-05T08:37:07.823Z,38.80
2018-11-05T08:39:11.110Z,36.17
2018-11-05T08:41:13.351Z,38.57
2018-11-05T08:43:15.602Z,39.20
2018-11-05T08:45:19.155Z,41.07
2018-11-05T08:47:21.403Z,37.50
2018-11-05T08:49:23.663Z,38.37
2018-11-05T08:51:26.167Z,39.13
2018-11-05T08:53:28.160Z,37.90
2018-11-05T08:55:30.439Z,38.63
2018-11-05T08:57:32.744Z,34.33
2018-11-05T08:59:34.976Z,40.00
2018-11-05T09:01:37.209Z,38.67
2018-11-05T09:03:40.486Z,39.90
2018-11-05T09:05:42.883Z,35.87
2018-11-05T09:07:45.992Z,34.90
2018-11-05T09:09:48.303Z,38.80
2018-11-05T09:11:50.492Z,37.67
2018-11-05T09:13:52.751Z,36.40
2018-11-05T09:15:56.097Z,38.37
2018-11-05T09:17:58.331Z,35.63
2018-11-05T09:20:00.575Z,36.47
2018-11-05T09:22:02.861Z,36.10
2018-11-05T09:24:05.167Z,35.50
2018-11-05T09:26:07.434Z,37.80
2018-11-05T09:28:09.716Z,35.00
2018-11-05T09:30:14.664Z,33.83
2018-11-05T09:32:17.411Z,37.10
2018-11-05T09:34:19.989Z,38.67
2018-11-05T09:36:22.249Z,35.53
2018-11-05T09:38:24.522Z,36.73
2018-11-05T09:40:26.903Z,36.40
2018-11-05T09:42:29.155Z,39.33
2018-11-05T09:44:31.402Z,34.97
2018-11-05T09:46:34.159Z,34.73
2018-11-05T09:48:36.471Z,35.83
2018-11-05T09:50:38.788Z,36.73
2018-11-05T09:52:41.076Z,38.77
2018-11-05T09:54:44.325Z,33.30
2018-11-05T09:56:46.497Z,38.03
2018-11-05T09:58:48.958Z,34.90
2018-11-05T10:00:51.749Z,35.30
2018-11-05T10:02:59.812Z,36.20
2018-11-05T10:05:02.255Z,34.23
2018-11-05T10:07:04.532Z,34.20
2018-11-05T10:09:07.718Z,35.63
2018-11-05T10:11:09.922Z,34.40
2018-11-05T10:13:12.963Z,35.23
2018-11-05T10:15:16.172Z,36.80
2018-11-05T10:17:18.349Z,36.57
2018-11-05T10:19:20.597Z,33.87
2018-11-05T10:21:22.766Z,35.50
2018-11-05T10:23:25.265Z,34.80
2018-11-05T10:25:27.451Z,34.43
2018-11-05T10:27:29.634Z,34.40
2018-11-05T10:29:32.942Z,32.50
2018-11-05T10:31:35.256Z,34.00
2018-11-05T10:33:37.634Z,36.60
2018-11-05T10:35:45.490Z,35.10
2018-11-05T10:37:47.727Z,32.37
2018-11-05T10:39:56.889Z,34.97
2018-11-05T10:41:59.120Z,35.57
2018-11-05T10:44:01.872Z,33.77
2018-11-05T10:46:04.577Z,35.47
2018-11-05T10:48:08.191Z,35.70
2018-11-05T10:50:11.402Z,35.10
2018-11-05T10:52:13.816Z,36.30
2018-11-05T10:54:16.222Z,35.33
2018-11-05T10:56:18.742Z,35.23
2018-11-05T10:58:21.107Z,35.20
2018-11-05T11:00:28.710Z,34.00
2018-11-05T11:02:37.557Z,35.00
2018-11-05T11:04:39.745Z,34.30
2018-11-05T11:06:41.972Z,34.30
2018-11-05T11:08:44.145Z,36.80
2018-11-05T11:10:46.345Z,33.53
2018-11-05T11:12:48.555Z,35.10
2018-11-05T11:14:51.017Z,36.43
2018-11-05T11:16:53.384Z,34.37
2018-11-05T11:18:55.558Z,34.50
2018-11-05T11:20:58.655Z,34.83
2018-11-05T11:23:00.805Z,36.50
2018-11-05T11:25:03.086Z,34.80
2018-11-05T11:27:05.758Z,34.77
2018-11-05T11:29:08.039Z,34.97
2018-11-05T11:31:10.154Z,34.97
2018-11-05T11:33:12.430Z,32.77
2018-11-05T11:35:14.632Z,36.10
2018-11-05T11:37:16.901Z,36.53
2018-11-05T11:39:18.993Z,38.70
2018-11-05T11:41:21.158Z,35.20
2018-11-05T11:43:23.327Z,36.97
2018-11-05T11:45:25.993Z,35.67
2018-11-05T11:47:28.148Z,35.23
2018-11-05T11:49:30.313Z,35.80
2018-11-05T11:51:32.570Z,35.47
2018-11-05T11:53:34.822Z,39.93
2018-11-05T11:55:36.960Z,38.33
2018-11-05T11:57:39.492Z,36.30
2018-11-05T11:59:41.634Z,36.60
2018-11-05T12:01:49.402Z,38.70
2018-11-05T12:03:51.598Z,38.83
2018-11-05T12:05:53.828Z,37.60
2018-11-05T12:07:55.983Z,40.20
2018-11-05T12:09:58.237Z,34.97
2018-11-05T12:12:00.421Z,38.50
2018-11-05T12:14:02.702Z,36.23
2018-11-05T12:16:04.779Z,41.80
2018-11-05T12:18:06.972Z,38.70
2018-11-05T12:20:10.538Z,38.57
2018-11-05T12:22:12.730Z,38.50
2018-11-05T12:24:14.927Z,40.30
2018-11-05T12:26:17.106Z,40.67
2018-11-05T12:28:19.447Z,37.17
2018-11-05T12:30:22.671Z,39.00
2018-11-05T12:32:24.964Z,40.33
2018-11-05T12:34:27.444Z,44.40
2018-11-05T12:36:29.622Z,42.90
2018-11-05T12:38:31.792Z,39.77
2018-11-05T12:40:33.993Z,38.40
2018-11-05T12:42:36.181Z,35.80
2018-11-05T12:44:38.498Z,38.67
2018-11-05T12:46:41.637Z,42.10
2018-11-05T12:48:43.857Z,40.93
2018-11-05T12:50:46.105Z,55.33
2018-11-05T12:52:49.361Z,44.97
2018-11-05T12:54:51.529Z,39.90
2018-11-05T12:56:53.718Z,40.00
2018-11-05T12:58:56.057Z,40.70
2018-11-05T13:00:58.278Z,42.17
2018-11-05T13:03:01.001Z,39.73
2018-11-05T13:05:03.506Z,41.03
2018-11-05T13:07:05.666Z,39.77
2018-11-05T13:09:08.287Z,42.60
2018-11-05T13:11:10.437Z,43.60
2018-11-05T13:13:12.602Z,40.17
2018-11-05T13:15:14.901Z,41.47
2018-11-05T13:17:17.059Z,41.37
2018-11-05T13:19:19.306Z,40.40
2018-11-05T13:21:21.458Z,39.80
2018-11-05T13:23:29.205Z,41.47
2018-11-05T13:25:32.193Z,41.60
2018-11-05T13:27:34.596Z,42.90
2018-11-05T13:29:36.817Z,40.20
2018-11-05T13:31:39.145Z,42.97
2018-11-05T13:33:41.346Z,41.43
2018-11-05T13:35:43.578Z,40.77
2018-11-05T13:37:46.256Z,41.63
2018-11-05T13:39:48.187Z,41.90
2018-11-05T13:41:50.401Z,44.47
2018-11-05T13:43:52.866Z,42.87
2018-11-05T13:45:55.628Z,41.33
2018-11-05T13:47:57.913Z,41.70
2018-11-05T13:50:00.341Z,41.20
2018-11-05T13:52:02.355Z,41.60
2018-11-05T13:54:04.824Z,43.57
2018-11-05T13:56:06.962Z,45.20
2018-11-05T13:58:09.109Z,43.07
2018-11-05T14:00:12.796Z,42.30
2018-11-05T14:02:15.100Z,45.20
2018-11-05T14:04:17.202Z,45.17
2018-11-05T14:06:19.358Z,44.13
2018-11-05T14:08:21.530Z,43.67
2018-11-05T14:10:23.769Z,44.50
2018-11-05T14:12:25.917Z,46.40
2018-11-05T14:14:28.129Z,43.40
2018-11-05T14:16:30.373Z,46.77
2018-11-05T14:18:32.481Z,42.63
2018-11-05T14:20:34.653Z,44.40
2018-11-05T14:22:36.810Z,45.20
2018-11-05T14:24:39.004Z,46.33
2018-11-05T14:26:41.373Z,44.00
2018-11-05T14:28:43.847Z,48.37
2018-11-05T14:30:45.957Z,44.57
2018-11-05T14:32:51.145Z,46.40
2018-11-05T14:34:59.145Z,45.83
2018-11-05T14:37:02.673Z,46.53
2018-11-05T14:39:12.651Z,49.00
2018-11-05T14:41:14.856Z,46.03
2018-11-05T14:43:17.192Z,44.43
2018-11-05T14:45:20.214Z,51.10
2018-11-05T14:47:22.369Z,47.33
2018-11-05T14:49:24.522Z,46.80
2018-11-05T14:51:26.706Z,49.70
2018-11-05T14:53:28.900Z,45.90
2018-11-05T14:55:31.095Z,50.87
2018-11-05T14:57:33.567Z,50.80
2018-11-05T14:59:35.770Z,49.33
2018-11-05T15:01:37.930Z,47.90
2018-11-05T15:03:40.108Z,47.40
2018-11-05T15:05:42.254Z,49.03
2018-11-05T15:07:45.397Z,49.30
2018-11-05T15:09:47.463Z,48.20
2018-11-05T15:11:49.607Z,49.00
2018-11-05T15:13:51.798Z,47.17
2018-11-05T15:15:53.961Z,49.37
2018-11-05T15:17:56.201Z,48.13
2018-11-05T15:19:58.803Z,49.80
2018-11-05T15:22:00.746Z,49.67
2018-11-05T15:24:02.930Z,52.57
2018-11-05T15:26:05.185Z,58.17
2018-11-05T15:28:07.662Z,53.37
2018-11-05T15:30:10.706Z,52.47
2018-11-05T15:32:13.585Z,53.30
2018-11-05T15:34:15.763Z,53.83
2018-11-05T15:36:18.353Z,51.10
2018-11-05T15:38:26.398Z,51.43
2018-11-05T15:40:28.775Z,48.13
2018-11-05T15:42:30.958Z,51.27
2018-11-05T15:44:33.130Z,52.47
2018-11-05T15:46:35.317Z,50.57
2018-11-05T15:48:40.801Z,49.90
2018-11-05T15:50:42.993Z,49.60
2018-11-05T15:52:45.522Z,50.20
2018-11-05T15:54:47.657Z,52.90
2018-11-05T15:56:49.854Z,51.43
2018-11-05T15:58:52.073Z,54.47
2018-11-05T16:00:54.241Z,54.27
2018-11-05T16:02:58.422Z,51.23
2018-11-05T16:05:00.666Z,54.80
2018-11-05T16:07:13.686Z,53.00
2018-11-05T16:09:19.302Z,55.47
2018-11-05T16:11:33.946Z,54.87
2018-11-05T16:13:36.219Z,55.80
2018-11-05T16:15:39.030Z,51.03
2018-11-05T16:17:41.310Z,53.67
2018-11-05T16:19:43.954Z,55.30
2018-11-05T16:21:49.587Z,58.70
2018-11-05T16:23:52.174Z,57.73
2018-11-05T16:25:54.550Z,58.80
2018-11-05T16:27:57.206Z,58.23
2018-11-05T16:29:59.680Z,59.57
2018-11-05T16:32:02.023Z,60.60
2018-11-05T16:34:04.570Z,63.80
2018-11-05T16:36:06.817Z,56.93
2018-11-05T16:38:09.090Z,59.57
2018-11-05T16:40:12.935Z,56.97
2018-11-05T16:42:15.299Z,56.80
2018-11-05T16:44:17.518Z,57.43
2018-11-05T16:46:19.823Z,56.40
2018-11-05T16:48:21.998Z,53.30
2018-11-05T16:50:25.593Z,53.47
2018-11-05T16:52:27.980Z,55.93
2018-11-05T16:54:30.292Z,52.70
2018-11-05T16:56:32.664Z,55.30
2018-11-05T16:58:35.064Z,54.40
2018-11-05T17:00:37.420Z,53.93
2018-11-05T17:02:39.875Z,52.60
2018-11-05T17:04:42.971Z,53.63
2018-11-05T17:06:45.803Z,52.63
2018-11-05T17:08:48.041Z,55.00
2018-11-05T17:10:50.608Z,52.53
2018-11-05T17:12:52.832Z,54.50
2018-11-05T17:14:55.066Z,55.20
2018-11-05T17:16:57.300Z,58.37
2018-11-05T17:18:59.594Z,53.07
2018-11-05T17:21:01.950Z,56.10
2018-11-05T17:23:04.246Z,52.90
2018-11-05T17:25:06.675Z,55.33
2018-11-05T17:27:08.991Z,57.03
2018-11-05T17:29:11.254Z,54.70
2018-11-05T17:31:13.504Z,55.50
2018-11-05T17:33:15.726Z,56.23
2018-11-05T17:35:18.401Z,56.57
2018-11-05T17:37:20.634Z,55.27
2018-11-05T17:39:22.877Z,60.50
2018-11-05T17:41:25.118Z,54.27
2018-11-05T17:43:27.361Z,55.00
2018-11-05T17:45:29.560Z,56.23
2018-11-05T17:47:31.822Z,55.80
2018-11-05T17:49:34.010Z,58.20
2018-11-05T17:51:36.344Z,53.40
2018-11-05T17:53:38.613Z,54.03
2018-11-05T17:55:40.897Z,55.50
2018-11-05T17:57:44.374Z,54.57
2018-11-05T17:59:47.687Z,53.43
2018-11-05T18:01:49.955Z,51.67
2018-11-05T18:03:52.215Z,51.93
2018-11-05T18:05:54.371Z,54.30
2018-11-05T18:07:57.030Z,54.73
2018-11-05T18:09:59.222Z,56.00
2018-11-05T18:12:01.438Z,55.87
2018-11-05T18:14:03.826Z,52.97
2018-11-05T18:16:06.082Z,53.90
2018-11-05T18:18:09.390Z,49.73
2018-11-05T18:20:13.002Z,54.00
2018-11-05T18:22:15.183Z,50.93
2018-11-05T18:24:17.440Z,55.27
2018-11-05T18:26:19.577Z,53.40
2018-11-05T18:28:21.775Z,52.60
2018-11-05T18:30:23.958Z,53.83
2018-11-05T18:32:26.381Z,57.27
2018-11-05T18:34:28.703Z,56.50
2018-11-05T18:36:30.926Z,51.60
2018-11-05T18:38:33.523Z,56.30
2018-11-05T18:40:35.738Z,54.73
2018-11-05T18:42:38.325Z,54.83
2018-11-05T18:44:40.662Z,61.63
2018-11-05T18:46:42.858Z,57.23
2018-11-05T18:48:45.178Z,56.67
2018-11-05T18:50:47.724Z,60.53
2018-11-05T18:52:49.923Z,55.47
2018-11-05T18:54:52.219Z,55.47
2018-11-05T18:56:54.568Z,57.10
2018-11-05T18:58:56.781Z,53.77
2018-11-05T19:00:58.987Z,60.90
2018-11-05T19:03:01.233Z,57.40
2018-11-05T19:05:03.568Z,57.17
2018-11-05T19:07:05.751Z,57.10
2018-11-05T19:09:08.280Z,59.53
2018-11-05T19:11:10.474Z,57.60
2018-11-05T19:13:12.666Z,55.67
2018-11-05T19:15:15.218Z,58.90
2018-11-05T19:17:17.407Z,61.97
2018-11-05T19:19:19.628Z,63.53
2018-11-05T19:21:21.909Z,59.23
2018-11-05T19:23:24.276Z,58.10
2018-11-05T19:27:40.881Z,56.13
2018-11-05T19:29:43.034Z,64.80
2018-11-05T19:31:45.362Z,62.67
2018-11-05T19:33:47.619Z,60.20
2018-11-05T19:35:49.741Z,62.27
2018-11-05T19:37:51.960Z,61.37
2018-11-05T19:39:54.675Z,60.77
2018-11-05T19:41:56.351Z,61.83
2018-11-05T19:43:58.457Z,62.43
2018-11-05T19:46:00.607Z,64.80
2018-11-05T19:48:02.761Z,60.87
